Impacts METAR Board
IDs:

KLAS - Las Vegas/McCarran I, NV, US

Updated at: 0600 UTC 11 Dec 2018
Potential Impact None Slight Moderate High
Time 10/18Z 10/19Z 10/20Z 10/21Z 10/22Z 10/23Z 11/00Z 11/01Z 11/02Z 11/03Z 11/04Z 11/05Z 11/06Z
Temp56 57 59 59 59 59 58 57 56 56 55 53 53
Dewpt34 30 30 30 28 29 29 29 29 30 31 32 32
Altim30.23 30.20 30.16 30.13 30.10 30.09 30.10 30.08 30.10 30.10 30.11 30.10 30.12
VIS10 10 10 10 10 10 10 10 10 10 10 10 10
CIG200 200 250 250 250 200 250 250 250 250 200 200 200
CoverBKNBKNBKNBKNBKNBKNBKNBKNBKNBKNOVCOVCOVC
FltCatVFRVFRVFRVFRVFRVFRVFRVFRVFRVFRVFRVFRVFR
WX--------------------------
WDir0107030330360102000250280300
WSpd0 3 5 7 4 4 6 7 0 0 4 4 3
WGst-- -- -- -- -- -- -- -- -- -- -- -- --
Raw hourly METARs
KLAS 101756Z 00000KT 10SM SCT150 BKN200 13/01 A3023 RMK AO2 SLP233 T01330011 10133 20072 50004
KLAS 101856Z 01003KT 10SM FEW150 BKN200 14/M01 A3020 RMK AO2 SLP222 T01391011
KLAS 101956Z 07005KT 10SM FEW150 SCT200 BKN250 15/M01 A3016 RMK AO2 SLP208 T01501011
KLAS 102056Z 03007KT 10SM FEW150 SCT200 BKN250 15/M01 A3013 RMK AO2 SLP196 T01501011 58033
KLAS 102156Z 33004KT 10SM FEW150 SCT200 BKN250 15/M02 A3010 RMK AO2 SLP189 T01501022
KLAS 102256Z 36004KT 10SM SCT150 BKN200 BKN250 15/M02 A3009 RMK AO2 SLP185 T01501017
KLAS 102356Z 01006KT 10SM FEW150 SCT200 BKN250 14/M02 A3010 RMK AO2 SLP188 VIRGA NE-SE-S T01441017 10161 20128 55010
KLAS 110056Z 02007KT 10SM FEW150 SCT200 BKN250 14/M02 A3008 RMK AO2 SLP184 T01391017
KLAS 110156Z 00000KT 10SM FEW150 SCT200 BKN250 13/M02 A3010 RMK AO2 SLP189 T01331017
KLAS 110256Z 00000KT 10SM SCT150 SCT200 BKN250 13/M01 A3010 RMK AO2 SLP192 T01331011 53003
KLAS 110356Z 25004KT 10SM SCT120 OVC200 13/M01 A3011 RMK AO2 SLP191 T01281006
KLAS 110456Z 28004KT 10SM SCT120 OVC200 12/00 A3010 RMK AO2 SLP190 T01170000
KLAS 110556Z 30003KT 10SM FEW120 OVC200 12/00 A3012 RMK AO2 SLP195 T01170000 10144 20111 53005



Page loaded:  06:54 UTC  |   10:54 PM Pacific  |   11:54 PM Mountain  |   12:54 AM Central  |   01:54 AM Eastern

 

ADVISORIES

FORECASTS

FORECASTS

OBSERVATIONS

USER TOOLS

ABOUT US